Airfield :
LOGIN :

Register | Disclaimer

   EN    FR    IT 

 










Legend :    VFR   Marginal VFR   IFR   Intensive IFR   Very Intensive IFR
Visi :
Ceiling :
>= 8 km
>= 3000ft
5 to 8 km
1000 to 3000 ft
1500m to 5 km
500 to 1000 ft
800 to 1500m
200 to 500 ft
< 800m
< 200 ft
Symbols :   Thunderstorms  Fog  Heavy snow  Heavy precipitations  Wind > 20 kt
SIGMETs :     Misc.  Thunderstorms  Icing  Turbulence  Mountain Waves  Volcanic Ashes






- Airport Elevation : 15 ft
- IATA code : ZTH


LGZA - Dionysios Solomos

CURRENT METAR :
  • 210950Z 04004KT CAVOK 33/16 Q1009

EXPIRED METARs :
  • 210920Z 04004KT CAVOK 34/21 Q1009
  • 210850Z 06004KT CAVOK 34/21 Q1009
  • 210820Z 13004KT CAVOK 34/20 Q1008
  • 210750Z 08004KT CAVOK 33/20 Q1007
  • 210720Z 07004KT CAVOK 33/24 Q1008
  • 210650Z 00000KT CAVOK 32/24 Q1008
  • 210620Z 00000KT CAVOK 30/23 Q1008
  • 210550Z 00000KT CAVOK 29/23 Q1008
  • 210520Z 00000KT CAVOK 27/20 Q1008
  • 210450Z 00000KT CAVOK 26/20 Q1008

TAF TAF LGZA
Valid from the 21 at 09:00 until the 21 at 18:00 UTC


210800Z 2109/2118 VRB03KT 9999 FEW018
BECMG 2110/2112 29010KT



MET'MAP, your aeronautical weather chart ! - Copyright ORBIFLY December 2007 - Disclaimer

ORBIFLY MET'MAP TEAM :

Programming & Development : Alexandra Zaïnal
Original concept : Baudouin d'Aumeries
Technical & hardware support : Manuel Goepfert
Assistance : Marc-Olivier Méhu




SOURCES & CREDITS :

   NOAA